sensor_id;sensor_type;location;lat;lon;timestamp;temperature;humidity
14016;DHT22;7083;48.854;9.158;2023-09-12T00:01:03;16.50;99.90
14016;DHT22;7083;48.854;9.158;2023-09-12T00:03:32;16.30;99.90
14016;DHT22;7083;48.854;9.158;2023-09-12T00:06:01;16.30;99.90
14016;DHT22;7083;48.854;9.158;2023-09-12T00:08:28;16.50;99.90
14016;DHT22;7083;48.854;9.158;2023-09-12T00:11:00;16.40;99.90
14016;DHT22;7083;48.854;9.158;2023-09-12T00:13:27;16.30;99.90
14016;DHT22;7083;48.854;9.158;2023-09-12T00:15:54;16.20;99.90
14016;DHT22;7083;48.854;9.158;2023-09-12T00:18:21;16.90;99.90
14016;DHT22;7083;48.854;9.158;2023-09-12T00:20:47;16.30;99.90
14016;DHT22;7083;48.854;9.158;2023-09-12T00:23:15;16.30;99.90
14016;DHT22;7083;48.854;9.158;2023-09-12T00:25:42;16.30;99.90
14016;DHT22;7083;48.854;9.158;2023-09-12T00:28:09;16.30;99.90
14016;DHT22;7083;48.854;9.158;2023-09-12T00:30:35;16.30;99.90
14016;DHT22;7083;48.854;9.158;2023-09-12T00:33:03;16.30;99.90
14016;DHT22;7083;48.854;9.158;2023-09-12T00:35:29;16.30;99.90
14016;DHT22;7083;48.854;9.158;2023-09-12T00:37:56;16.40;99.90
14016;DHT22;7083;48.854;9.158;2023-09-12T00:40:24;16.30;99.90
14016;DHT22;7083;48.854;9.158;2023-09-12T00:42:51;16.40;99.90
14016;DHT22;7083;48.854;9.158;2023-09-12T00:45:18;16.30;99.90
14016;DHT22;7083;48.854;9.158;2023-09-12T00:47:45;16.30;99.90
14016;DHT22;7083;48.854;9.158;2023-09-12T00:50:13;16.30;99.90
14016;DHT22;7083;48.854;9.158;2023-09-12T00:52:41;16.30;99.90
14016;DHT22;7083;48.854;9.158;2023-09-12T00:55:09;16.20;99.90
14016;DHT22;7083;48.854;9.158;2023-09-12T00:57:37;16.30;99.90
14016;DHT22;7083;48.854;9.158;2023-09-12T01:00:05;16.20;99.90
14016;DHT22;7083;48.854;9.158;2023-09-12T01:02:37;16.20;99.90
14016;DHT22;7083;48.854;9.158;2023-09-12T01:05:05;16.20;99.90
14016;DHT22;7083;48.854;9.158;2023-09-12T01:07:33;16.10;99.90
14016;DHT22;7083;48.854;9.158;2023-09-12T01:10:00;16.80;99.90
14016;DHT22;7083;48.854;9.158;2023-09-12T01:12:27;16.10;99.90
14016;DHT22;7083;48.854;9.158;2023-09-12T01:14:55;16.10;99.90
14016;DHT22;7083;48.854;9.158;2023-09-12T01:17:22;16.10;99.90
14016;DHT22;7083;48.854;9.158;2023-09-12T01:19:50;16.10;99.90
14016;DHT22;7083;48.854;9.158;2023-09-12T01:22:46;16.10;99.90
14016;DHT22;7083;48.854;9.158;2023-09-12T01:28:21;16.00;99.90
14016;DHT22;7083;48.854;9.158;2023-09-12T01:30:51;16.10;99.90
14016;DHT22;7083;48.854;9.158;2023-09-12T01:33:18;16.00;99.90
14016;DHT22;7083;48.854;9.158;2023-09-12T01:35:45;16.00;99.90
14016;DHT22;7083;48.854;9.158;2023-09-12T01:38:13;16.00;99.90
14016;DHT22;7083;48.854;9.158;2023-09-12T01:40:43;16.10;99.90
14016;DHT22;7083;48.854;9.158;2023-09-12T01:43:11;16.00;99.90
14016;DHT22;7083;48.854;9.158;2023-09-12T01:45:41;16.00;99.90
14016;DHT22;7083;48.854;9.158;2023-09-12T01:48:08;15.90;99.90
14016;DHT22;7083;48.854;9.158;2023-09-12T01:50:36;16.00;99.90
14016;DHT22;7083;48.854;9.158;2023-09-12T01:53:12;16.80;99.90
14016;DHT22;7083;48.854;9.158;2023-09-12T01:55:42;16.70;99.90
14016;DHT22;7083;48.854;9.158;2023-09-12T01:58:09;16.00;99.90
14016;DHT22;7083;48.854;9.158;2023-09-12T02:00:36;15.90;99.90
14016;DHT22;7083;48.854;9.158;2023-09-12T02:03:05;15.90;99.90
14016;DHT22;7083;48.854;9.158;2023-09-12T02:05:32;15.90;99.90
14016;DHT22;7083;48.854;9.158;2023-09-12T02:07:59;16.00;99.90
14016;DHT22;7083;48.854;9.158;2023-09-12T02:10:27;16.00;99.90
14016;DHT22;7083;48.854;9.158;2023-09-12T02:13:08;16.00;99.90
14016;DHT22;7083;48.854;9.158;2023-09-12T02:15:35;17.20;99.90
14016;DHT22;7083;48.854;9.158;2023-09-12T02:18:02;16.00;99.90
14016;DHT22;7083;48.854;9.158;2023-09-12T02:20:31;15.90;99.90
14016;DHT22;7083;48.854;9.158;2023-09-12T02:23:00;15.90;99.90
14016;DHT22;7083;48.854;9.158;2023-09-12T02:25:31;15.80;99.90
14016;DHT22;7083;48.854;9.158;2023-09-12T02:27:59;15.90;99.90
14016;DHT22;7083;48.854;9.158;2023-09-12T02:30:26;16.10;99.90
14016;DHT22;7083;48.854;9.158;2023-09-12T02:32:55;15.90;99.90
14016;DHT22;7083;48.854;9.158;2023-09-12T02:35:22;15.90;99.90
14016;DHT22;7083;48.854;9.158;2023-09-12T02:37:50;17.20;99.90
14016;DHT22;7083;48.854;9.158;2023-09-12T02:40:18;17.20;99.90
14016;DHT22;7083;48.854;9.158;2023-09-12T02:42:44;16.00;99.90
14016;DHT22;7083;48.854;9.158;2023-09-12T02:45:11;16.00;99.90
14016;DHT22;7083;48.854;9.158;2023-09-12T02:47:38;16.10;99.90
14016;DHT22;7083;48.854;9.158;2023-09-12T02:50:05;15.90;99.90
14016;DHT22;7083;48.854;9.158;2023-09-12T02:52:32;16.00;99.90
14016;DHT22;7083;48.854;9.158;2023-09-12T02:55:00;16.60;99.90
14016;DHT22;7083;48.854;9.158;2023-09-12T02:57:27;15.90;99.90
14016;DHT22;7083;48.854;9.158;2023-09-12T02:59:58;16.90;99.90
14016;DHT22;7083;48.854;9.158;2023-09-12T03:02:25;16.10;99.90
14016;DHT22;7083;48.854;9.158;2023-09-12T03:04:57;15.90;99.90
14016;DHT22;7083;48.854;9.158;2023-09-12T03:07:24;16.00;99.90
14016;DHT22;7083;48.854;9.158;2023-09-12T03:09:50;15.90;99.90
14016;DHT22;7083;48.854;9.158;2023-09-12T03:12:19;17.00;99.90
14016;DHT22;7083;48.854;9.158;2023-09-12T03:14:45;16.90;99.90
14016;DHT22;7083;48.854;9.158;2023-09-12T03:17:12;16.40;99.90
14016;DHT22;7083;48.854;9.158;2023-09-12T03:19:39;15.90;99.90
14016;DHT22;7083;48.854;9.158;2023-09-12T03:22:05;15.90;99.90
14016;DHT22;7083;48.854;9.158;2023-09-12T03:24:32;15.80;99.90
14016;DHT22;7083;48.854;9.158;2023-09-12T03:26:59;15.80;99.90
14016;DHT22;7083;48.854;9.158;2023-09-12T03:29:27;15.80;99.90
14016;DHT22;7083;48.854;9.158;2023-09-12T03:31:54;17.20;99.90
14016;DHT22;7083;48.854;9.158;2023-09-12T03:34:20;15.80;99.90
14016;DHT22;7083;48.854;9.158;2023-09-12T03:36:47;15.70;99.90
14016;DHT22;7083;48.854;9.158;2023-09-12T03:39:14;15.80;99.90
14016;DHT22;7083;48.854;9.158;2023-09-12T03:41:40;15.60;99.90
14016;DHT22;7083;48.854;9.158;2023-09-12T03:44:08;15.70;99.90
14016;DHT22;7083;48.854;9.158;2023-09-12T03:46:36;16.10;99.90
14016;DHT22;7083;48.854;9.158;2023-09-12T03:49:02;15.70;99.90
14016;DHT22;7083;48.854;9.158;2023-09-12T03:51:29;15.70;99.90
14016;DHT22;7083;48.854;9.158;2023-09-12T03:53:56;15.70;99.90
14016;DHT22;7083;48.854;9.158;2023-09-12T03:56:23;16.30;99.90
14016;DHT22;7083;48.854;9.158;2023-09-12T03:58:49;15.70;99.90
14016;DHT22;7083;48.854;9.158;2023-09-12T04:01:16;15.70;99.90
14016;DHT22;7083;48.854;9.158;2023-09-12T04:03:45;15.60;99.90
14016;DHT22;7083;48.854;9.158;2023-09-12T04:06:13;15.90;99.90
14016;DHT22;7083;48.854;9.158;2023-09-12T04:08:39;15.70;99.90
14016;DHT22;7083;48.854;9.158;2023-09-12T04:11:06;15.70;99.90
14016;DHT22;7083;48.854;9.158;2023-09-12T04:13:35;15.80;99.90
14016;DHT22;7083;48.854;9.158;2023-09-12T04:16:01;15.80;99.90
14016;DHT22;7083;48.854;9.158;2023-09-12T04:18:28;15.90;99.90
14016;DHT22;7083;48.854;9.158;2023-09-12T04:20:56;15.90;99.90
14016;DHT22;7083;48.854;9.158;2023-09-12T04:23:24;15.90;99.90
14016;DHT22;7083;48.854;9.158;2023-09-12T04:25:51;15.90;99.90
14016;DHT22;7083;48.854;9.158;2023-09-12T04:28:18;16.60;99.90
14016;DHT22;7083;48.854;9.158;2023-09-12T04:30:44;15.90;99.90
14016;DHT22;7083;48.854;9.158;2023-09-12T04:33:11;17.80;99.90
14016;DHT22;7083;48.854;9.158;2023-09-12T04:35:38;16.00;99.90
14016;DHT22;7083;48.854;9.158;2023-09-12T04:38:06;16.00;99.90
14016;DHT22;7083;48.854;9.158;2023-09-12T04:40:33;16.10;99.90
14016;DHT22;7083;48.854;9.158;2023-09-12T04:43:00;16.00;99.90
14016;DHT22;7083;48.854;9.158;2023-09-12T04:45:27;16.10;99.90
14016;DHT22;7083;48.854;9.158;2023-09-12T04:47:53;16.10;99.90
14016;DHT22;7083;48.854;9.158;2023-09-12T04:50:20;16.10;99.90
14016;DHT22;7083;48.854;9.158;2023-09-12T04:52:46;16.20;99.90
14016;DHT22;7083;48.854;9.158;2023-09-12T04:55:15;16.10;99.90
14016;DHT22;7083;48.854;9.158;2023-09-12T04:57:41;16.20;99.90
14016;DHT22;7083;48.854;9.158;2023-09-12T05:00:09;16.00;99.90
14016;DHT22;7083;48.854;9.158;2023-09-12T05:02:36;16.20;99.90
14016;DHT22;7083;48.854;9.158;2023-09-12T05:05:04;16.20;99.90
14016;DHT22;7083;48.854;9.158;2023-09-12T05:07:31;16.20;99.90
14016;DHT22;7083;48.854;9.158;2023-09-12T05:09:57;16.30;99.90
14016;DHT22;7083;48.854;9.158;2023-09-12T05:12:25;16.30;99.90
14016;DHT22;7083;48.854;9.158;2023-09-12T05:14:52;16.40;99.90
14016;DHT22;7083;48.854;9.158;2023-09-12T05:17:19;16.40;99.90
14016;DHT22;7083;48.854;9.158;2023-09-12T05:19:45;16.50;99.90
14016;DHT22;7083;48.854;9.158;2023-09-12T05:22:12;16.50;99.90
14016;DHT22;7083;48.854;9.158;2023-09-12T05:24:39;16.80;99.90
14016;DHT22;7083;48.854;9.158;2023-09-12T05:27:05;17.50;99.90
14016;DHT22;7083;48.854;9.158;2023-09-12T05:29:34;17.20;99.90
14016;DHT22;7083;48.854;9.158;2023-09-12T05:32:01;16.90;99.90
14016;DHT22;7083;48.854;9.158;2023-09-12T05:34:28;16.90;99.90
14016;DHT22;7083;48.854;9.158;2023-09-12T05:36:55;16.90;99.90
14016;DHT22;7083;48.854;9.158;2023-09-12T05:39:22;17.00;99.90
14016;DHT22;7083;48.854;9.158;2023-09-12T05:41:49;17.10;99.90
14016;DHT22;7083;48.854;9.158;2023-09-12T05:44:16;17.10;99.90
14016;DHT22;7083;48.854;9.158;2023-09-12T05:46:45;17.30;99.90
14016;DHT22;7083;48.854;9.158;2023-09-12T05:49:12;17.40;99.90
14016;DHT22;7083;48.854;9.158;2023-09-12T05:51:40;17.40;99.90
14016;DHT22;7083;48.854;9.158;2023-09-12T05:54:07;17.50;99.90
14016;DHT22;7083;48.854;9.158;2023-09-12T05:56:34;17.60;99.90
14016;DHT22;7083;48.854;9.158;2023-09-12T05:59:01;17.80;99.90
14016;DHT22;7083;48.854;9.158;2023-09-12T06:01:28;17.80;99.90
14016;DHT22;7083;48.854;9.158;2023-09-12T06:03:56;17.90;99.90
14016;DHT22;7083;48.854;9.158;2023-09-12T06:06:23;18.00;99.90
14016;DHT22;7083;48.854;9.158;2023-09-12T06:08:49;18.00;99.90
14016;DHT22;7083;48.854;9.158;2023-09-12T06:11:17;18.20;99.90
14016;DHT22;7083;48.854;9.158;2023-09-12T06:13:44;18.30;99.90
14016;DHT22;7083;48.854;9.158;2023-09-12T06:16:11;18.30;99.90
14016;DHT22;7083;48.854;9.158;2023-09-12T06:18:38;18.40;99.90
14016;DHT22;7083;48.854;9.158;2023-09-12T06:21:06;18.50;99.90
14016;DHT22;7083;48.854;9.158;2023-09-12T06:23:34;18.50;99.90
14016;DHT22;7083;48.854;9.158;2023-09-12T06:26:00;18.60;99.90
14016;DHT22;7083;48.854;9.158;2023-09-12T06:28:28;18.50;99.90
14016;DHT22;7083;48.854;9.158;2023-09-12T06:30:55;19.30;99.90
14016;DHT22;7083;48.854;9.158;2023-09-12T06:33:22;18.80;99.90
14016;DHT22;7083;48.854;9.158;2023-09-12T06:35:49;18.80;99.90
14016;DHT22;7083;48.854;9.158;2023-09-12T06:38:19;18.90;99.90
14016;DHT22;7083;48.854;9.158;2023-09-12T06:40:46;18.90;99.90
14016;DHT22;7083;48.854;9.158;2023-09-12T06:43:13;19.00;99.90
14016;DHT22;7083;48.854;9.158;2023-09-12T06:45:40;19.10;99.90
14016;DHT22;7083;48.854;9.158;2023-09-12T06:48:07;19.20;99.90
14016;DHT22;7083;48.854;9.158;2023-09-12T06:50:34;19.30;99.90
14016;DHT22;7083;48.854;9.158;2023-09-12T06:53:03;19.30;99.90
14016;DHT22;7083;48.854;9.158;2023-09-12T06:55:32;19.40;99.90
14016;DHT22;7083;48.854;9.158;2023-09-12T06:57:59;19.60;99.90
14016;DHT22;7083;48.854;9.158;2023-09-12T07:00:26;19.70;99.90
14016;DHT22;7083;48.854;9.158;2023-09-12T07:02:53;19.80;99.90
14016;DHT22;7083;48.854;9.158;2023-09-12T07:05:19;19.90;99.90
14016;DHT22;7083;48.854;9.158;2023-09-12T07:07:46;20.00;99.90
14016;DHT22;7083;48.854;9.158;2023-09-12T07:10:13;20.10;99.90
14016;DHT22;7083;48.854;9.158;2023-09-12T07:12:41;20.10;99.90
14016;DHT22;7083;48.854;9.158;2023-09-12T07:15:08;20.20;99.90
14016;DHT22;7083;48.854;9.158;2023-09-12T07:17:35;20.30;99.90
14016;DHT22;7083;48.854;9.158;2023-09-12T07:20:02;20.30;99.90
14016;DHT22;7083;48.854;9.158;2023-09-12T07:22:29;20.30;99.90
14016;DHT22;7083;48.854;9.158;2023-09-12T07:24:59;20.30;99.90
14016;DHT22;7083;48.854;9.158;2023-09-12T07:27:26;20.20;99.90
14016;DHT22;7083;48.854;9.158;2023-09-12T07:29:55;20.20;99.90
14016;DHT22;7083;48.854;9.158;2023-09-12T07:32:22;20.20;99.90
14016;DHT22;7083;48.854;9.158;2023-09-12T07:34:49;20.10;99.90
14016;DHT22;7083;48.854;9.158;2023-09-12T07:37:16;20.10;99.90
14016;DHT22;7083;48.854;9.158;2023-09-12T07:39:43;20.20;99.90
14016;DHT22;7083;48.854;9.158;2023-09-12T07:42:09;20.20;99.90
14016;DHT22;7083;48.854;9.158;2023-09-12T07:44:36;20.30;99.90
14016;DHT22;7083;48.854;9.158;2023-09-12T07:47:04;20.40;99.90
14016;DHT22;7083;48.854;9.158;2023-09-12T07:49:31;20.60;99.90
14016;DHT22;7083;48.854;9.158;2023-09-12T07:51:58;20.70;99.90
14016;DHT22;7083;48.854;9.158;2023-09-12T07:54:25;20.90;99.90
14016;DHT22;7083;48.854;9.158;2023-09-12T07:56:51;21.00;99.90
14016;DHT22;7083;48.854;9.158;2023-09-12T07:59:18;21.20;99.90
14016;DHT22;7083;48.854;9.158;2023-09-12T08:01:45;21.50;99.90
14016;DHT22;7083;48.854;9.158;2023-09-12T08:04:13;21.50;99.90
14016;DHT22;7083;48.854;9.158;2023-09-12T08:06:40;21.70;99.90
14016;DHT22;7083;48.854;9.158;2023-09-12T08:09:07;21.60;99.90
14016;DHT22;7083;48.854;9.158;2023-09-12T08:11:34;21.70;99.90
14016;DHT22;7083;48.854;9.158;2023-09-12T08:14:01;21.80;99.90
14016;DHT22;7083;48.854;9.158;2023-09-12T08:16:28;21.90;99.90
14016;DHT22;7083;48.854;9.158;2023-09-12T08:18:56;21.90;99.90
14016;DHT22;7083;48.854;9.158;2023-09-12T08:21:25;21.90;99.90
14016;DHT22;7083;48.854;9.158;2023-09-12T08:23:51;22.00;99.90
14016;DHT22;7083;48.854;9.158;2023-09-12T08:26:18;22.00;99.90
14016;DHT22;7083;48.854;9.158;2023-09-12T08:28:45;22.10;99.90
14016;DHT22;7083;48.854;9.158;2023-09-12T08:31:11;22.20;99.90
14016;DHT22;7083;48.854;9.158;2023-09-12T08:33:38;22.30;99.90
14016;DHT22;7083;48.854;9.158;2023-09-12T08:36:05;23.50;99.90
14016;DHT22;7083;48.854;9.158;2023-09-12T08:38:33;22.50;99.90
14016;DHT22;7083;48.854;9.158;2023-09-12T08:41:00;22.60;99.90
14016;DHT22;7083;48.854;9.158;2023-09-12T08:43:26;22.70;99.90
14016;DHT22;7083;48.854;9.158;2023-09-12T08:45:53;22.80;99.90
14016;DHT22;7083;48.854;9.158;2023-09-12T08:48:20;22.90;99.90
14016;DHT22;7083;48.854;9.158;2023-09-12T08:50:49;22.90;99.90
14016;DHT22;7083;48.854;9.158;2023-09-12T08:53:16;22.90;99.90
14016;DHT22;7083;48.854;9.158;2023-09-12T08:55:47;23.00;99.90
14016;DHT22;7083;48.854;9.158;2023-09-12T08:58:14;23.00;99.90
14016;DHT22;7083;48.854;9.158;2023-09-12T09:00:42;23.10;99.90
14016;DHT22;7083;48.854;9.158;2023-09-12T09:03:09;23.10;99.90
14016;DHT22;7083;48.854;9.158;2023-09-12T09:05:37;23.20;99.90
14016;DHT22;7083;48.854;9.158;2023-09-12T09:08:06;23.20;99.90
14016;DHT22;7083;48.854;9.158;2023-09-12T09:10:33;23.30;99.90
14016;DHT22;7083;48.854;9.158;2023-09-12T09:13:02;23.30;99.90
14016;DHT22;7083;48.854;9.158;2023-09-12T09:15:31;23.40;99.90
14016;DHT22;7083;48.854;9.158;2023-09-12T09:17:58;23.50;99.90
14016;DHT22;7083;48.854;9.158;2023-09-12T09:20:31;23.50;99.90
14016;DHT22;7083;48.854;9.158;2023-09-12T09:23:01;23.50;99.90
14016;DHT22;7083;48.854;9.158;2023-09-12T09:25:31;23.50;99.90
14016;DHT22;7083;48.854;9.158;2023-09-12T09:27:57;23.60;99.90
14016;DHT22;7083;48.854;9.158;2023-09-12T09:30:42;23.60;99.90
14016;DHT22;7083;48.854;9.158;2023-09-12T09:33:11;23.70;99.90
14016;DHT22;7083;48.854;9.158;2023-09-12T09:35:38;23.80;99.90
14016;DHT22;7083;48.854;9.158;2023-09-12T09:38:08;23.80;99.90
14016;DHT22;7083;48.854;9.158;2023-09-12T09:40:35;23.80;98.70
14016;DHT22;7083;48.854;9.158;2023-09-12T09:43:03;23.90;98.70
14016;DHT22;7083;48.854;9.158;2023-09-12T09:45:31;24.00;97.50
14016;DHT22;7083;48.854;9.158;2023-09-12T09:48:04;24.10;97.20
14016;DHT22;7083;48.854;9.158;2023-09-12T09:50:33;24.10;97.00
14016;DHT22;7083;48.854;9.158;2023-09-12T09:53:01;24.20;96.30
14016;DHT22;7083;48.854;9.158;2023-09-12T09:55:30;24.30;96.50
14016;DHT22;7083;48.854;9.158;2023-09-12T09:57:56;24.40;94.80
14016;DHT22;7083;48.854;9.158;2023-09-12T10:00:23;24.50;95.20
14016;DHT22;7083;48.854;9.158;2023-09-12T10:02:51;25.20;95.50
14016;DHT22;7083;48.854;9.158;2023-09-12T10:05:20;24.70;95.20
14016;DHT22;7083;48.854;9.158;2023-09-12T10:07:49;24.80;94.70
14016;DHT22;7083;48.854;9.158;2023-09-12T10:10:17;24.90;94.60
14016;DHT22;7083;48.854;9.158;2023-09-12T10:12:49;25.00;94.40
14016;DHT22;7083;48.854;9.158;2023-09-12T10:15:17;25.10;93.70
14016;DHT22;7083;48.854;9.158;2023-09-12T10:17:48;25.10;93.70
14016;DHT22;7083;48.854;9.158;2023-09-12T10:20:21;25.20;93.60
14016;DHT22;7083;48.854;9.158;2023-09-12T10:22:55;25.20;93.60
14016;DHT22;7083;48.854;9.158;2023-09-12T10:25:26;25.30;93.40
14016;DHT22;7083;48.854;9.158;2023-09-12T10:27:54;25.40;91.90
14016;DHT22;7083;48.854;9.158;2023-09-12T10:30:22;25.50;91.50
14016;DHT22;7083;48.854;9.158;2023-09-12T10:32:49;25.70;91.90
14016;DHT22;7083;48.854;9.158;2023-09-12T10:35:17;25.80;91.90
14016;DHT22;7083;48.854;9.158;2023-09-12T10:37:46;25.90;91.80
14016;DHT22;7083;48.854;9.158;2023-09-12T10:40:16;25.80;91.50
14016;DHT22;7083;48.854;9.158;2023-09-12T10:42:44;25.90;90.90
14016;DHT22;7083;48.854;9.158;2023-09-12T10:45:12;26.10;91.20
14016;DHT22;7083;48.854;9.158;2023-09-12T10:47:39;26.20;90.80
14016;DHT22;7083;48.854;9.158;2023-09-12T10:50:07;26.20;90.40
14016;DHT22;7083;48.854;9.158;2023-09-12T10:52:34;26.30;90.30
14016;DHT22;7083;48.854;9.158;2023-09-12T10:55:07;26.20;90.50
14016;DHT22;7083;48.854;9.158;2023-09-12T10:57:34;26.30;88.20
14016;DHT22;7083;48.854;9.158;2023-09-12T11:00:11;26.40;87.60
14016;DHT22;7083;48.854;9.158;2023-09-12T11:02:39;26.50;85.00
14016;DHT22;7083;48.854;9.158;2023-09-12T11:05:36;26.70;84.40
14016;DHT22;7083;48.854;9.158;2023-09-12T11:08:04;27.00;83.60
14016;DHT22;7083;48.854;9.158;2023-09-12T11:10:32;27.20;81.80
14016;DHT22;7083;48.854;9.158;2023-09-12T11:12:58;27.60;81.40
14016;DHT22;7083;48.854;9.158;2023-09-12T11:15:27;27.40;81.50
14016;DHT22;7083;48.854;9.158;2023-09-12T11:18:01;27.50;79.30
14016;DHT22;7083;48.854;9.158;2023-09-12T11:20:51;27.50;80.00
14016;DHT22;7083;48.854;9.158;2023-09-12T11:23:19;27.50;81.70
14016;DHT22;7083;48.854;9.158;2023-09-12T11:25:47;27.50;80.80
14016;DHT22;7083;48.854;9.158;2023-09-12T11:28:14;27.50;80.80
14016;DHT22;7083;48.854;9.158;2023-09-12T11:30:55;27.60;79.80
14016;DHT22;7083;48.854;9.158;2023-09-12T11:33:24;27.70;76.70
14016;DHT22;7083;48.854;9.158;2023-09-12T11:35:52;27.80;78.20
14016;DHT22;7083;48.854;9.158;2023-09-12T11:38:26;27.90;79.70
14016;DHT22;7083;48.854;9.158;2023-09-12T11:40:56;27.90;77.80
14016;DHT22;7083;48.854;9.158;2023-09-12T11:43:25;28.00;78.30
14016;DHT22;7083;48.854;9.158;2023-09-12T11:45:53;28.00;78.10
14016;DHT22;7083;48.854;9.158;2023-09-12T11:48:20;28.10;78.60
14016;DHT22;7083;48.854;9.158;2023-09-12T11:50:52;28.20;78.60
14016;DHT22;7083;48.854;9.158;2023-09-12T11:53:21;28.40;77.10
14016;DHT22;7083;48.854;9.158;2023-09-12T11:55:52;28.60;78.70
14016;DHT22;7083;48.854;9.158;2023-09-12T11:58:20;28.90;79.70
14016;DHT22;7083;48.854;9.158;2023-09-12T12:00:49;29.20;79.10
14016;DHT22;7083;48.854;9.158;2023-09-12T12:03:17;29.10;77.20
14016;DHT22;7083;48.854;9.158;2023-09-12T12:05:44;29.20;76.50
14016;DHT22;7083;48.854;9.158;2023-09-12T12:08:11;29.40;75.70
14016;DHT22;7083;48.854;9.158;2023-09-12T12:10:38;29.50;75.40
14016;DHT22;7083;48.854;9.158;2023-09-12T12:13:09;29.90;73.70
14016;DHT22;7083;48.854;9.158;2023-09-12T12:15:38;30.10;74.00
14016;DHT22;7083;48.854;9.158;2023-09-12T12:18:05;30.20;73.30
14016;DHT22;7083;48.854;9.158;2023-09-12T12:20:32;30.50;73.60
14016;DHT22;7083;48.854;9.158;2023-09-12T17:10:49;30.80;73.30
14016;DHT22;7083;48.854;9.158;2023-09-12T21:26:35;27.90;77.00
14016;DHT22;7083;48.854;9.158;2023-09-12T21:29:01;20.40;92.90
14016;DHT22;7083;48.854;9.158;2023-09-12T21:31:29;20.10;93.10
14016;DHT22;7083;48.854;9.158;2023-09-12T21:33:56;20.00;93.40
14016;DHT22;7083;48.854;9.158;2023-09-12T21:36:22;19.90;93.60
14016;DHT22;7083;48.854;9.158;2023-09-12T21:38:49;19.80;93.70
14016;DHT22;7083;48.854;9.158;2023-09-12T21:41:16;19.70;94.00
14016;DHT22;7083;48.854;9.158;2023-09-12T21:43:44;19.50;94.10
14016;DHT22;7083;48.854;9.158;2023-09-12T21:46:10;19.50;94.20
14016;DHT22;7083;48.854;9.158;2023-09-12T21:48:37;19.40;94.40
14016;DHT22;7083;48.854;9.158;2023-09-12T21:51:07;19.40;94.80
14016;DHT22;7083;48.854;9.158;2023-09-12T21:53:39;19.20;95.00
14016;DHT22;7083;48.854;9.158;2023-09-12T21:56:12;19.20;95.30
14016;DHT22;7083;48.854;9.158;2023-09-12T21:58:39;19.10;95.30
14016;DHT22;7083;48.854;9.158;2023-09-12T22:01:07;19.10;95.40
14016;DHT22;7083;48.854;9.158;2023-09-12T22:03:34;19.00;95.50
14016;DHT22;7083;48.854;9.158;2023-09-12T22:06:03;19.00;95.70
14016;DHT22;7083;48.854;9.158;2023-09-12T22:08:30;18.90;96.00
14016;DHT22;7083;48.854;9.158;2023-09-12T22:10:57;18.90;96.20
14016;DHT22;7083;48.854;9.158;2023-09-12T22:13:24;18.80;96.40
14016;DHT22;7083;48.854;9.158;2023-09-12T22:15:51;18.90;96.90
14016;DHT22;7083;48.854;9.158;2023-09-12T22:18:19;18.80;97.10
14016;DHT22;7083;48.854;9.158;2023-09-12T22:20:46;18.70;97.70
14016;DHT22;7083;48.854;9.158;2023-09-12T22:23:13;18.70;98.00
14016;DHT22;7083;48.854;9.158;2023-09-12T22:25:39;18.70;99.90
14016;DHT22;7083;48.854;9.158;2023-09-12T22:28:06;18.80;99.90
14016;DHT22;7083;48.854;9.158;2023-09-12T22:30:33;18.80;99.90
14016;DHT22;7083;48.854;9.158;2023-09-12T22:33:00;18.70;99.90
14016;DHT22;7083;48.854;9.158;2023-09-12T22:35:28;18.70;99.90
14016;DHT22;7083;48.854;9.158;2023-09-12T22:37:55;18.60;99.90
14016;DHT22;7083;48.854;9.158;2023-09-12T22:40:21;18.70;99.90
14016;DHT22;7083;48.854;9.158;2023-09-12T22:42:48;18.60;99.90
14016;DHT22;7083;48.854;9.158;2023-09-12T22:45:15;18.70;99.90
14016;DHT22;7083;48.854;9.158;2023-09-12T22:47:42;18.60;99.90
14016;DHT22;7083;48.854;9.158;2023-09-12T22:50:09;18.80;99.90
14016;DHT22;7083;48.854;9.158;2023-09-12T22:52:38;18.60;99.90
14016;DHT22;7083;48.854;9.158;2023-09-12T22:55:05;18.60;99.90
14016;DHT22;7083;48.854;9.158;2023-09-12T22:57:32;18.50;99.90
14016;DHT22;7083;48.854;9.158;2023-09-12T23:00:01;18.50;99.90
14016;DHT22;7083;48.854;9.158;2023-09-12T23:02:28;18.50;99.90
14016;DHT22;7083;48.854;9.158;2023-09-12T23:04:55;18.50;99.90
14016;DHT22;7083;48.854;9.158;2023-09-12T23:07:21;18.50;99.90
14016;DHT22;7083;48.854;9.158;2023-09-12T23:09:50;18.50;99.90
14016;DHT22;7083;48.854;9.158;2023-09-12T23:12:16;18.50;99.90
14016;DHT22;7083;48.854;9.158;2023-09-12T23:14:46;20.20;99.90
14016;DHT22;7083;48.854;9.158;2023-09-12T23:17:19;18.40;99.90
14016;DHT22;7083;48.854;9.158;2023-09-12T23:19:45;18.60;99.90
14016;DHT22;7083;48.854;9.158;2023-09-12T23:22:12;18.70;99.90
14016;DHT22;7083;48.854;9.158;2023-09-12T23:24:39;18.70;99.90
14016;DHT22;7083;48.854;9.158;2023-09-12T23:27:07;18.80;99.90
14016;DHT22;7083;48.854;9.158;2023-09-12T23:29:34;18.80;99.90
14016;DHT22;7083;48.854;9.158;2023-09-12T23:32:00;18.90;99.90
14016;DHT22;7083;48.854;9.158;2023-09-12T23:34:27;18.90;99.90
14016;DHT22;7083;48.854;9.158;2023-09-12T23:36:54;18.90;99.90
14016;DHT22;7083;48.854;9.158;2023-09-12T23:39:23;18.90;99.90
14016;DHT22;7083;48.854;9.158;2023-09-12T23:41:53;19.00;99.90
14016;DHT22;7083;48.854;9.158;2023-09-12T23:44:21;19.00;99.90
14016;DHT22;7083;48.854;9.158;2023-09-12T23:46:49;19.00;99.90
14016;DHT22;7083;48.854;9.158;2023-09-12T23:49:15;19.00;99.90
14016;DHT22;7083;48.854;9.158;2023-09-12T23:51:42;19.10;99.90
14016;DHT22;7083;48.854;9.158;2023-09-12T23:54:12;19.10;99.90
14016;DHT22;7083;48.854;9.158;2023-09-12T23:56:37;19.20;99.90
14016;DHT22;7083;48.854;9.158;2023-09-12T23:59:05;19.20;99.90
